sensor_id;sensor_type;location;lat;lon;timestamp;P1;durP1;ratioP1;P2;durP2;ratioP2
42000;SDS011;27689;48.390;10.856;2022-08-01T00:01:16;3.80;;;2.73;;
42000;SDS011;27689;48.390;10.856;2022-08-01T00:04:00;3.45;;;2.78;;
42000;SDS011;27689;48.390;10.856;2022-08-01T00:06:44;7.17;;;2.80;;
42000;SDS011;27689;48.390;10.856;2022-08-01T00:09:28;5.80;;;2.70;;
42000;SDS011;27689;48.390;10.856;2022-08-01T00:12:12;3.25;;;2.95;;
42000;SDS011;27689;48.390;10.856;2022-08-01T00:14:56;3.83;;;2.70;;
42000;SDS011;27689;48.390;10.856;2022-08-01T00:17:40;4.38;;;2.75;;
42000;SDS011;27689;48.390;10.856;2022-08-01T00:20:24;5.38;;;2.53;;
42000;SDS011;27689;48.390;10.856;2022-08-01T00:23:08;3.60;;;3.00;;
42000;SDS011;27689;48.390;10.856;2022-08-01T00:25:52;3.70;;;3.00;;
42000;SDS011;27689;48.390;10.856;2022-08-01T00:28:36;4.18;;;2.95;;
42000;SDS011;27689;48.390;10.856;2022-08-01T00:31:20;3.78;;;2.95;;
42000;SDS011;27689;48.390;10.856;2022-08-01T00:34:04;4.95;;;3.00;;
42000;SDS011;27689;48.390;10.856;2022-08-01T00:36:48;4.93;;;2.90;;
42000;SDS011;27689;48.390;10.856;2022-08-01T00:39:32;3.72;;;3.38;;
42000;SDS011;27689;48.390;10.856;2022-08-01T00:42:19;5.07;;;3.30;;
42000;SDS011;27689;48.390;10.856;2022-08-01T00:45:03;4.65;;;3.00;;
42000;SDS011;27689;48.390;10.856;2022-08-01T00:47:47;3.25;;;2.80;;
42000;SDS011;27689;48.390;10.856;2022-08-01T00:50:32;3.10;;;2.80;;
42000;SDS011;27689;48.390;10.856;2022-08-01T00:56:01;3.40;;;3.10;;
42000;SDS011;27689;48.390;10.856;2022-08-01T00:58:45;4.47;;;3.03;;
42000;SDS011;27689;48.390;10.856;2022-08-01T01:01:29;3.13;;;2.67;;
42000;SDS011;27689;48.390;10.856;2022-08-01T01:04:13;5.00;;;2.63;;
42000;SDS011;27689;48.390;10.856;2022-08-01T01:07:09;3.30;;;2.88;;
42000;SDS011;27689;48.390;10.856;2022-08-01T01:10:09;3.13;;;2.63;;
42000;SDS011;27689;48.390;10.856;2022-08-01T01:13:06;2.55;;;2.35;;
42000;SDS011;27689;48.390;10.856;2022-08-01T01:15:58;4.97;;;2.88;;
42000;SDS011;27689;48.390;10.856;2022-08-01T01:18:46;2.92;;;2.58;;
42000;SDS011;27689;48.390;10.856;2022-08-01T01:24:37;3.25;;;2.80;;
42000;SDS011;27689;48.390;10.856;2022-08-01T01:30:23;2.92;;;2.65;;
42000;SDS011;27689;48.390;10.856;2022-08-01T01:33:11;2.85;;;2.55;;
42000;SDS011;27689;48.390;10.856;2022-08-01T01:35:58;3.55;;;2.80;;
42000;SDS011;27689;48.390;10.856;2022-08-01T01:38:46;4.68;;;2.70;;
42000;SDS011;27689;48.390;10.856;2022-08-01T01:41:31;3.22;;;2.53;;
42000;SDS011;27689;48.390;10.856;2022-08-01T01:44:16;3.05;;;2.55;;
42000;SDS011;27689;48.390;10.856;2022-08-01T01:49:46;4.88;;;2.85;;
42000;SDS011;27689;48.390;10.856;2022-08-01T01:52:32;3.17;;;2.63;;
42000;SDS011;27689;48.390;10.856;2022-08-01T01:55:18;3.53;;;2.70;;
42000;SDS011;27689;48.390;10.856;2022-08-01T01:58:05;3.67;;;2.83;;
42000;SDS011;27689;48.390;10.856;2022-08-01T02:00:51;5.97;;;2.50;;
42000;SDS011;27689;48.390;10.856;2022-08-01T02:03:36;3.65;;;2.60;;
42000;SDS011;27689;48.390;10.856;2022-08-01T02:06:22;2.22;;;2.03;;
42000;SDS011;27689;48.390;10.856;2022-08-01T02:09:08;4.40;;;2.67;;
42000;SDS011;27689;48.390;10.856;2022-08-01T02:11:52;3.08;;;2.78;;
42000;SDS011;27689;48.390;10.856;2022-08-01T02:14:37;2.60;;;2.40;;
42000;SDS011;27689;48.390;10.856;2022-08-01T02:17:25;4.97;;;2.20;;
42000;SDS011;27689;48.390;10.856;2022-08-01T02:20:10;3.30;;;3.00;;
42000;SDS011;27689;48.390;10.856;2022-08-01T02:23:03;3.28;;;2.63;;
42000;SDS011;27689;48.390;10.856;2022-08-01T02:25:52;3.72;;;2.90;;
42000;SDS011;27689;48.390;10.856;2022-08-01T02:28:56;3.53;;;2.50;;
42000;SDS011;27689;48.390;10.856;2022-08-01T02:31:43;3.13;;;2.80;;
42000;SDS011;27689;48.390;10.856;2022-08-01T02:34:30;3.58;;;2.80;;
42000;SDS011;27689;48.390;10.856;2022-08-01T02:37:18;3.97;;;2.60;;
42000;SDS011;27689;48.390;10.856;2022-08-01T02:40:04;3.22;;;2.70;;
42000;SDS011;27689;48.390;10.856;2022-08-01T02:42:51;4.63;;;3.00;;
42000;SDS011;27689;48.390;10.856;2022-08-01T02:45:39;3.35;;;2.63;;
42000;SDS011;27689;48.390;10.856;2022-08-01T02:48:29;5.97;;;3.00;;
42000;SDS011;27689;48.390;10.856;2022-08-01T02:51:14;4.68;;;2.53;;
42000;SDS011;27689;48.390;10.856;2022-08-01T02:54:00;4.85;;;2.55;;
42000;SDS011;27689;48.390;10.856;2022-08-01T02:56:46;4.13;;;2.80;;
42000;SDS011;27689;48.390;10.856;2022-08-01T02:59:32;3.05;;;2.42;;
42000;SDS011;27689;48.390;10.856;2022-08-01T03:02:21;5.05;;;2.60;;
42000;SDS011;27689;48.390;10.856;2022-08-01T03:05:06;3.05;;;2.47;;
42000;SDS011;27689;48.390;10.856;2022-08-01T03:07:52;5.40;;;2.83;;
42000;SDS011;27689;48.390;10.856;2022-08-01T03:10:39;3.47;;;2.83;;
42000;SDS011;27689;48.390;10.856;2022-08-01T03:13:26;2.67;;;2.42;;
42000;SDS011;27689;48.390;10.856;2022-08-01T03:16:13;5.55;;;3.15;;
42000;SDS011;27689;48.390;10.856;2022-08-01T03:18:58;4.78;;;3.10;;
42000;SDS011;27689;48.390;10.856;2022-08-01T03:21:45;4.28;;;2.92;;
42000;SDS011;27689;48.390;10.856;2022-08-01T03:24:31;3.25;;;2.70;;
42000;SDS011;27689;48.390;10.856;2022-08-01T03:27:21;4.72;;;2.53;;
42000;SDS011;27689;48.390;10.856;2022-08-01T03:30:07;3.10;;;2.80;;
42000;SDS011;27689;48.390;10.856;2022-08-01T03:32:54;2.70;;;2.50;;
42000;SDS011;27689;48.390;10.856;2022-08-01T03:35:39;4.07;;;3.30;;
42000;SDS011;27689;48.390;10.856;2022-08-01T03:38:29;4.82;;;2.63;;
42000;SDS011;27689;48.390;10.856;2022-08-01T03:41:18;3.80;;;2.78;;
42000;SDS011;27689;48.390;10.856;2022-08-01T03:44:05;4.22;;;2.72;;
42000;SDS011;27689;48.390;10.856;2022-08-01T03:46:56;3.47;;;2.83;;
42000;SDS011;27689;48.390;10.856;2022-08-01T03:49:44;3.63;;;2.90;;
42000;SDS011;27689;48.390;10.856;2022-08-01T03:52:31;3.83;;;2.65;;
42000;SDS011;27689;48.390;10.856;2022-08-01T03:55:17;5.88;;;3.20;;
42000;SDS011;27689;48.390;10.856;2022-08-01T03:58:05;4.28;;;2.60;;
42000;SDS011;27689;48.390;10.856;2022-08-01T04:00:50;5.25;;;2.65;;
42000;SDS011;27689;48.390;10.856;2022-08-01T04:03:34;4.47;;;3.10;;
42000;SDS011;27689;48.390;10.856;2022-08-01T04:06:20;4.20;;;3.25;;
42000;SDS011;27689;48.390;10.856;2022-08-01T04:09:04;4.30;;;3.00;;
42000;SDS011;27689;48.390;10.856;2022-08-01T04:11:48;3.97;;;2.80;;
42000;SDS011;27689;48.390;10.856;2022-08-01T04:14:32;3.20;;;2.45;;
42000;SDS011;27689;48.390;10.856;2022-08-01T04:17:16;4.88;;;3.10;;
42000;SDS011;27689;48.390;10.856;2022-08-01T04:20:00;3.47;;;3.17;;
42000;SDS011;27689;48.390;10.856;2022-08-01T04:22:44;5.75;;;2.80;;
42000;SDS011;27689;48.390;10.856;2022-08-01T04:25:29;3.70;;;3.00;;
42000;SDS011;27689;48.390;10.856;2022-08-01T04:28:17;2.85;;;2.60;;
42000;SDS011;27689;48.390;10.856;2022-08-01T04:31:04;3.88;;;2.88;;
42000;SDS011;27689;48.390;10.856;2022-08-01T04:33:53;4.45;;;3.30;;
42000;SDS011;27689;48.390;10.856;2022-08-01T04:36:39;3.88;;;2.88;;
42000;SDS011;27689;48.390;10.856;2022-08-01T04:39:26;3.33;;;2.70;;
42000;SDS011;27689;48.390;10.856;2022-08-01T04:42:14;5.90;;;2.78;;
42000;SDS011;27689;48.390;10.856;2022-08-01T04:44:59;3.05;;;2.63;;
42000;SDS011;27689;48.390;10.856;2022-08-01T04:47:44;3.42;;;2.67;;
42000;SDS011;27689;48.390;10.856;2022-08-01T04:50:29;3.08;;;2.70;;
42000;SDS011;27689;48.390;10.856;2022-08-01T04:53:16;3.13;;;2.83;;
42000;SDS011;27689;48.390;10.856;2022-08-01T04:56:00;3.78;;;3.13;;
42000;SDS011;27689;48.390;10.856;2022-08-01T04:58:44;3.55;;;2.85;;
42000;SDS011;27689;48.390;10.856;2022-08-01T05:01:28;3.08;;;2.78;;
42000;SDS011;27689;48.390;10.856;2022-08-01T05:04:12;3.40;;;2.73;;
42000;SDS011;27689;48.390;10.856;2022-08-01T05:06:56;3.50;;;2.70;;
42000;SDS011;27689;48.390;10.856;2022-08-01T05:09:41;3.08;;;2.78;;
42000;SDS011;27689;48.390;10.856;2022-08-01T05:15:09;3.70;;;2.65;;
42000;SDS011;27689;48.390;10.856;2022-08-01T05:17:54;3.50;;;2.60;;
42000;SDS011;27689;48.390;10.856;2022-08-01T05:20:38;6.25;;;3.00;;
42000;SDS011;27689;48.390;10.856;2022-08-01T05:23:22;2.67;;;2.47;;
42000;SDS011;27689;48.390;10.856;2022-08-01T05:26:06;3.22;;;2.50;;
42000;SDS011;27689;48.390;10.856;2022-08-01T05:28:51;4.18;;;2.80;;
42000;SDS011;27689;48.390;10.856;2022-08-01T05:31:35;2.85;;;2.60;;
42000;SDS011;27689;48.390;10.856;2022-08-01T05:34:19;5.00;;;2.95;;
42000;SDS011;27689;48.390;10.856;2022-08-01T05:39:47;7.38;;;3.40;;
42000;SDS011;27689;48.390;10.856;2022-08-01T05:42:31;3.63;;;2.55;;
42000;SDS011;27689;48.390;10.856;2022-08-01T05:45:16;3.00;;;2.70;;
42000;SDS011;27689;48.390;10.856;2022-08-01T05:48:00;4.57;;;3.20;;
42000;SDS011;27689;48.390;10.856;2022-08-01T05:50:44;3.70;;;2.85;;
42000;SDS011;27689;48.390;10.856;2022-08-01T05:53:28;4.72;;;2.80;;
42000;SDS011;27689;48.390;10.856;2022-08-01T05:56:12;3.65;;;2.75;;
42000;SDS011;27689;48.390;10.856;2022-08-01T05:58:56;4.63;;;2.53;;
42000;SDS011;27689;48.390;10.856;2022-08-01T06:01:39;4.05;;;2.70;;
42000;SDS011;27689;48.390;10.856;2022-08-01T06:04:23;3.40;;;2.88;;
42000;SDS011;27689;48.390;10.856;2022-08-01T06:07:07;3.43;;;2.83;;
42000;SDS011;27689;48.390;10.856;2022-08-01T06:09:51;5.65;;;3.38;;
42000;SDS011;27689;48.390;10.856;2022-08-01T06:12:36;3.67;;;2.97;;
42000;SDS011;27689;48.390;10.856;2022-08-01T06:15:20;3.28;;;2.80;;
42000;SDS011;27689;48.390;10.856;2022-08-01T06:18:04;4.03;;;2.90;;
42000;SDS011;27689;48.390;10.856;2022-08-01T06:20:48;4.72;;;3.10;;
42000;SDS011;27689;48.390;10.856;2022-08-01T06:23:32;4.75;;;2.92;;
42000;SDS011;27689;48.390;10.856;2022-08-01T06:26:19;6.17;;;2.50;;
42000;SDS011;27689;48.390;10.856;2022-08-01T06:29:04;3.15;;;2.83;;
42000;SDS011;27689;48.390;10.856;2022-08-01T06:31:47;4.35;;;2.90;;
42000;SDS011;27689;48.390;10.856;2022-08-01T06:34:31;4.38;;;2.75;;
42000;SDS011;27689;48.390;10.856;2022-08-01T06:37:15;5.72;;;2.80;;
42000;SDS011;27689;48.390;10.856;2022-08-01T06:40:06;4.57;;;3.17;;
42000;SDS011;27689;48.390;10.856;2022-08-01T06:42:52;3.38;;;2.72;;
42000;SDS011;27689;48.390;10.856;2022-08-01T06:45:36;5.63;;;3.42;;
42000;SDS011;27689;48.390;10.856;2022-08-01T06:48:20;3.10;;;2.72;;
42000;SDS011;27689;48.390;10.856;2022-08-01T06:51:04;4.60;;;3.05;;
42000;SDS011;27689;48.390;10.856;2022-08-01T06:53:52;3.65;;;3.15;;
42000;SDS011;27689;48.390;10.856;2022-08-01T06:56:37;4.93;;;2.97;;
42000;SDS011;27689;48.390;10.856;2022-08-01T06:59:21;6.80;;;3.33;;
42000;SDS011;27689;48.390;10.856;2022-08-01T07:02:05;5.20;;;2.95;;
42000;SDS011;27689;48.390;10.856;2022-08-01T07:04:50;2.97;;;2.70;;
42000;SDS011;27689;48.390;10.856;2022-08-01T07:07:34;6.77;;;3.10;;
42000;SDS011;27689;48.390;10.856;2022-08-01T07:10:18;3.53;;;2.63;;
42000;SDS011;27689;48.390;10.856;2022-08-01T07:13:02;3.97;;;2.90;;
42000;SDS011;27689;48.390;10.856;2022-08-01T07:15:46;4.37;;;3.00;;
42000;SDS011;27689;48.390;10.856;2022-08-01T07:18:30;5.07;;;3.05;;
42000;SDS011;27689;48.390;10.856;2022-08-01T07:21:14;3.90;;;2.75;;
42000;SDS011;27689;48.390;10.856;2022-08-01T07:23:58;3.35;;;2.95;;
42000;SDS011;27689;48.390;10.856;2022-08-01T07:26:43;3.92;;;2.63;;
42000;SDS011;27689;48.390;10.856;2022-08-01T07:29:29;4.00;;;2.90;;
42000;SDS011;27689;48.390;10.856;2022-08-01T07:32:13;5.03;;;2.90;;
42000;SDS011;27689;48.390;10.856;2022-08-01T07:34:57;3.47;;;2.83;;
42000;SDS011;27689;48.390;10.856;2022-08-01T07:37:41;4.55;;;2.95;;
42000;SDS011;27689;48.390;10.856;2022-08-01T07:40:25;4.33;;;2.83;;
42000;SDS011;27689;48.390;10.856;2022-08-01T07:43:09;4.82;;;2.50;;
42000;SDS011;27689;48.390;10.856;2022-08-01T07:45:53;3.38;;;3.08;;
42000;SDS011;27689;48.390;10.856;2022-08-01T07:48:37;4.90;;;2.53;;
42000;SDS011;27689;48.390;10.856;2022-08-01T07:51:21;4.53;;;2.90;;
42000;SDS011;27689;48.390;10.856;2022-08-01T07:54:05;3.35;;;2.50;;
42000;SDS011;27689;48.390;10.856;2022-08-01T07:56:49;4.83;;;3.07;;
42000;SDS011;27689;48.390;10.856;2022-08-01T08:02:18;2.85;;;2.50;;
42000;SDS011;27689;48.390;10.856;2022-08-01T08:05:02;3.38;;;2.13;;
42000;SDS011;27689;48.390;10.856;2022-08-01T08:07:48;2.63;;;2.40;;
42000;SDS011;27689;48.390;10.856;2022-08-01T08:10:32;2.85;;;2.13;;
42000;SDS011;27689;48.390;10.856;2022-08-01T08:13:16;3.85;;;2.67;;
42000;SDS011;27689;48.390;10.856;2022-08-01T08:16:00;3.20;;;2.60;;
42000;SDS011;27689;48.390;10.856;2022-08-01T08:18:44;3.50;;;1.98;;
42000;SDS011;27689;48.390;10.856;2022-08-01T08:21:28;4.05;;;2.60;;
42000;SDS011;27689;48.390;10.856;2022-08-01T08:24:13;4.75;;;2.40;;
42000;SDS011;27689;48.390;10.856;2022-08-01T08:27:04;4.03;;;2.30;;
42000;SDS011;27689;48.390;10.856;2022-08-01T08:29:48;7.43;;;2.45;;
42000;SDS011;27689;48.390;10.856;2022-08-01T08:32:32;1.95;;;1.67;;
42000;SDS011;27689;48.390;10.856;2022-08-01T08:35:15;2.70;;;1.92;;
42000;SDS011;27689;48.390;10.856;2022-08-01T08:37:59;3.50;;;1.63;;
42000;SDS011;27689;48.390;10.856;2022-08-01T08:40:43;3.05;;;1.80;;
42000;SDS011;27689;48.390;10.856;2022-08-01T08:43:28;8.38;;;2.15;;
42000;SDS011;27689;48.390;10.856;2022-08-01T08:46:12;4.25;;;1.70;;
42000;SDS011;27689;48.390;10.856;2022-08-01T08:48:58;2.40;;;1.52;;
42000;SDS011;27689;48.390;10.856;2022-08-01T08:51:43;9.93;;;2.10;;
42000;SDS011;27689;48.390;10.856;2022-08-01T08:57:13;9.13;;;2.28;;
42000;SDS011;27689;48.390;10.856;2022-08-01T09:02:42;4.07;;;1.65;;
42000;SDS011;27689;48.390;10.856;2022-08-01T09:05:27;2.20;;;1.58;;
42000;SDS011;27689;48.390;10.856;2022-08-01T09:08:11;4.07;;;1.80;;
42000;SDS011;27689;48.390;10.856;2022-08-01T09:10:55;2.03;;;1.85;;
42000;SDS011;27689;48.390;10.856;2022-08-01T09:13:39;2.78;;;1.60;;
42000;SDS011;27689;48.390;10.856;2022-08-01T09:16:23;2.93;;;1.67;;
42000;SDS011;27689;48.390;10.856;2022-08-01T09:19:09;2.33;;;1.58;;
42000;SDS011;27689;48.390;10.856;2022-08-01T09:22:02;1.80;;;1.50;;
42000;SDS011;27689;48.390;10.856;2022-08-01T09:25:03;2.85;;;1.60;;
42000;SDS011;27689;48.390;10.856;2022-08-01T09:27:48;2.22;;;1.45;;
42000;SDS011;27689;48.390;10.856;2022-08-01T09:30:46;2.95;;;1.40;;
42000;SDS011;27689;48.390;10.856;2022-08-01T09:33:46;10.48;;;2.33;;
42000;SDS011;27689;48.390;10.856;2022-08-01T09:36:48;2.15;;;1.40;;
42000;SDS011;27689;48.390;10.856;2022-08-01T09:39:43;2.08;;;1.38;;
42000;SDS011;27689;48.390;10.856;2022-08-01T09:42:28;7.53;;;1.90;;
42000;SDS011;27689;48.390;10.856;2022-08-01T09:45:30;1.70;;;1.50;;
42000;SDS011;27689;48.390;10.856;2022-08-01T09:48:15;1.90;;;1.30;;
42000;SDS011;27689;48.390;10.856;2022-08-01T09:51:02;1.88;;;1.23;;
42000;SDS011;27689;48.390;10.856;2022-08-01T09:53:47;3.15;;;1.65;;
42000;SDS011;27689;48.390;10.856;2022-08-01T09:56:36;1.85;;;1.50;;
42000;SDS011;27689;48.390;10.856;2022-08-01T09:59:21;2.67;;;1.60;;
42000;SDS011;27689;48.390;10.856;2022-08-01T10:02:05;2.28;;;1.70;;
42000;SDS011;27689;48.390;10.856;2022-08-01T10:04:50;3.30;;;1.30;;
42000;SDS011;27689;48.390;10.856;2022-08-01T10:07:35;2.67;;;1.50;;
42000;SDS011;27689;48.390;10.856;2022-08-01T10:10:38;2.17;;;1.45;;
42000;SDS011;27689;48.390;10.856;2022-08-01T10:13:22;4.28;;;1.48;;
42000;SDS011;27689;48.390;10.856;2022-08-01T10:16:06;1.10;;;1.00;;
42000;SDS011;27689;48.390;10.856;2022-08-01T10:18:51;3.40;;;1.58;;
42000;SDS011;27689;48.390;10.856;2022-08-01T10:21:37;1.75;;;1.45;;
42000;SDS011;27689;48.390;10.856;2022-08-01T10:24:23;1.63;;;1.17;;
42000;SDS011;27689;48.390;10.856;2022-08-01T10:27:08;3.35;;;1.67;;
42000;SDS011;27689;48.390;10.856;2022-08-01T10:30:00;2.63;;;1.23;;
42000;SDS011;27689;48.390;10.856;2022-08-01T10:32:51;3.08;;;1.30;;
42000;SDS011;27689;48.390;10.856;2022-08-01T10:38:21;1.60;;;1.25;;
42000;SDS011;27689;48.390;10.856;2022-08-01T10:41:06;3.10;;;1.27;;
42000;SDS011;27689;48.390;10.856;2022-08-01T10:43:52;2.15;;;1.30;;
42000;SDS011;27689;48.390;10.856;2022-08-01T10:46:37;2.25;;;1.27;;
42000;SDS011;27689;48.390;10.856;2022-08-01T10:49:22;3.20;;;1.30;;
42000;SDS011;27689;48.390;10.856;2022-08-01T10:52:17;2.17;;;1.30;;
42000;SDS011;27689;48.390;10.856;2022-08-01T10:55:05;1.38;;;1.20;;
42000;SDS011;27689;48.390;10.856;2022-08-01T10:57:53;1.38;;;1.20;;
42000;SDS011;27689;48.390;10.856;2022-08-01T11:00:37;1.95;;;1.10;;
42000;SDS011;27689;48.390;10.856;2022-08-01T11:03:31;2.45;;;1.30;;
42000;SDS011;27689;48.390;10.856;2022-08-01T11:06:17;4.25;;;1.50;;
42000;SDS011;27689;48.390;10.856;2022-08-01T11:12:07;2.15;;;1.10;;
42000;SDS011;27689;48.390;10.856;2022-08-01T11:20:33;4.63;;;1.90;;
42000;SDS011;27689;48.390;10.856;2022-08-01T11:23:18;3.22;;;1.70;;
42000;SDS011;27689;48.390;10.856;2022-08-01T11:29:10;6.50;;;1.80;;
42000;SDS011;27689;48.390;10.856;2022-08-01T11:32:18;6.22;;;1.52;;
42000;SDS011;27689;48.390;10.856;2022-08-01T11:35:09;3.13;;;1.60;;
42000;SDS011;27689;48.390;10.856;2022-08-01T11:37:53;4.00;;;1.53;;
42000;SDS011;27689;48.390;10.856;2022-08-01T11:40:40;2.88;;;1.52;;
42000;SDS011;27689;48.390;10.856;2022-08-01T11:43:26;3.42;;;1.58;;
42000;SDS011;27689;48.390;10.856;2022-08-01T11:46:09;2.28;;;1.73;;
42000;SDS011;27689;48.390;10.856;2022-08-01T11:55:13;2.35;;;1.48;;
42000;SDS011;27689;48.390;10.856;2022-08-01T11:57:59;2.13;;;1.67;;
42000;SDS011;27689;48.390;10.856;2022-08-01T12:00:54;3.42;;;1.70;;
42000;SDS011;27689;48.390;10.856;2022-08-01T12:03:39;1.98;;;1.60;;
42000;SDS011;27689;48.390;10.856;2022-08-01T12:06:27;3.60;;;1.67;;
42000;SDS011;27689;48.390;10.856;2022-08-01T12:09:18;2.40;;;1.58;;
42000;SDS011;27689;48.390;10.856;2022-08-01T12:12:04;3.65;;;1.52;;
42000;SDS011;27689;48.390;10.856;2022-08-01T12:14:58;3.17;;;1.48;;
42000;SDS011;27689;48.390;10.856;2022-08-01T12:20:33;1.77;;;1.50;;
42000;SDS011;27689;48.390;10.856;2022-08-01T12:23:18;2.28;;;1.45;;
42000;SDS011;27689;48.390;10.856;2022-08-01T12:26:02;2.27;;;1.77;;
42000;SDS011;27689;48.390;10.856;2022-08-01T12:28:47;2.95;;;1.60;;
42000;SDS011;27689;48.390;10.856;2022-08-01T12:31:32;5.30;;;1.73;;
42000;SDS011;27689;48.390;10.856;2022-08-01T12:34:29;2.22;;;1.70;;
42000;SDS011;27689;48.390;10.856;2022-08-01T12:37:13;2.45;;;1.40;;
42000;SDS011;27689;48.390;10.856;2022-08-01T12:39:58;3.20;;;1.50;;
42000;SDS011;27689;48.390;10.856;2022-08-01T12:42:43;2.38;;;1.60;;
42000;SDS011;27689;48.390;10.856;2022-08-01T12:48:26;5.30;;;1.70;;
42000;SDS011;27689;48.390;10.856;2022-08-01T12:53:58;4.28;;;1.83;;
42000;SDS011;27689;48.390;10.856;2022-08-01T12:56:43;1.92;;;1.50;;
42000;SDS011;27689;48.390;10.856;2022-08-01T12:59:27;4.00;;;1.70;;
42000;SDS011;27689;48.390;10.856;2022-08-01T13:02:12;2.25;;;1.60;;
42000;SDS011;27689;48.390;10.856;2022-08-01T13:04:56;4.70;;;1.65;;
42000;SDS011;27689;48.390;10.856;2022-08-01T13:07:44;4.78;;;1.70;;
42000;SDS011;27689;48.390;10.856;2022-08-01T13:10:32;2.67;;;1.77;;
42000;SDS011;27689;48.390;10.856;2022-08-01T13:13:17;4.68;;;1.50;;
42000;SDS011;27689;48.390;10.856;2022-08-01T13:16:04;4.28;;;1.60;;
42000;SDS011;27689;48.390;10.856;2022-08-01T13:18:49;4.88;;;1.85;;
42000;SDS011;27689;48.390;10.856;2022-08-01T13:21:35;1.90;;;1.40;;
42000;SDS011;27689;48.390;10.856;2022-08-01T13:24:26;3.10;;;1.45;;
42000;SDS011;27689;48.390;10.856;2022-08-01T13:27:19;2.17;;;1.50;;
42000;SDS011;27689;48.390;10.856;2022-08-01T13:30:14;2.58;;;1.30;;
42000;SDS011;27689;48.390;10.856;2022-08-01T13:33:00;6.65;;;1.60;;
42000;SDS011;27689;48.390;10.856;2022-08-01T13:35:44;4.05;;;1.50;;
42000;SDS011;27689;48.390;10.856;2022-08-01T13:38:28;5.20;;;1.98;;
42000;SDS011;27689;48.390;10.856;2022-08-01T13:41:33;9.77;;;3.33;;
42000;SDS011;27689;48.390;10.856;2022-08-01T13:44:17;26.55;;;6.70;;
42000;SDS011;27689;48.390;10.856;2022-08-01T13:47:02;8.48;;;2.80;;
42000;SDS011;27689;48.390;10.856;2022-08-01T13:49:47;6.07;;;2.63;;
42000;SDS011;27689;48.390;10.856;2022-08-01T13:52:31;4.50;;;2.80;;
42000;SDS011;27689;48.390;10.856;2022-08-01T13:55:15;8.52;;;3.22;;
42000;SDS011;27689;48.390;10.856;2022-08-01T13:57:59;3.85;;;2.08;;
42000;SDS011;27689;48.390;10.856;2022-08-01T14:00:43;4.72;;;2.80;;
42000;SDS011;27689;48.390;10.856;2022-08-01T14:03:27;7.72;;;2.20;;
42000;SDS011;27689;48.390;10.856;2022-08-01T14:06:12;5.70;;;1.25;;
42000;SDS011;27689;48.390;10.856;2022-08-01T14:08:57;4.60;;;1.20;;
42000;SDS011;27689;48.390;10.856;2022-08-01T14:11:41;2.38;;;1.00;;
42000;SDS011;27689;48.390;10.856;2022-08-01T14:14:26;4.18;;;1.30;;
42000;SDS011;27689;48.390;10.856;2022-08-01T14:19:54;3.95;;;1.00;;
42000;SDS011;27689;48.390;10.856;2022-08-01T14:22:39;4.75;;;1.33;;
42000;SDS011;27689;48.390;10.856;2022-08-01T14:25:24;1.98;;;1.08;;
42000;SDS011;27689;48.390;10.856;2022-08-01T14:28:08;3.22;;;1.10;;
42000;SDS011;27689;48.390;10.856;2022-08-01T14:30:52;3.38;;;1.42;;
42000;SDS011;27689;48.390;10.856;2022-08-01T14:33:39;2.03;;;1.52;;
42000;SDS011;27689;48.390;10.856;2022-08-01T14:36:23;2.70;;;1.23;;
42000;SDS011;27689;48.390;10.856;2022-08-01T14:39:06;4.35;;;1.60;;
42000;SDS011;27689;48.390;10.856;2022-08-01T14:41:51;4.72;;;2.28;;
42000;SDS011;27689;48.390;10.856;2022-08-01T14:44:35;4.47;;;2.00;;
42000;SDS011;27689;48.390;10.856;2022-08-01T14:47:19;6.78;;;2.45;;
42000;SDS011;27689;48.390;10.856;2022-08-01T14:50:07;3.00;;;1.70;;
42000;SDS011;27689;48.390;10.856;2022-08-01T14:52:53;5.72;;;2.30;;
42000;SDS011;27689;48.390;10.856;2022-08-01T14:55:37;4.68;;;2.10;;
42000;SDS011;27689;48.390;10.856;2022-08-01T14:58:22;4.07;;;2.20;;
42000;SDS011;27689;48.390;10.856;2022-08-01T15:01:06;4.40;;;2.27;;
42000;SDS011;27689;48.390;10.856;2022-08-01T15:03:50;3.50;;;1.90;;
42000;SDS011;27689;48.390;10.856;2022-08-01T15:06:34;6.32;;;2.00;;
42000;SDS011;27689;48.390;10.856;2022-08-01T15:09:18;3.97;;;2.22;;
42000;SDS011;27689;48.390;10.856;2022-08-01T15:12:02;3.60;;;2.00;;
42000;SDS011;27689;48.390;10.856;2022-08-01T15:14:46;4.88;;;2.38;;
42000;SDS011;27689;48.390;10.856;2022-08-01T15:17:33;4.63;;;2.28;;
42000;SDS011;27689;48.390;10.856;2022-08-01T15:20:17;6.38;;;2.97;;
42000;SDS011;27689;48.390;10.856;2022-08-01T15:23:01;5.30;;;2.72;;
42000;SDS011;27689;48.390;10.856;2022-08-01T15:25:45;6.38;;;2.67;;
42000;SDS011;27689;48.390;10.856;2022-08-01T15:28:30;4.20;;;2.40;;
42000;SDS011;27689;48.390;10.856;2022-08-01T15:31:14;7.68;;;2.35;;
42000;SDS011;27689;48.390;10.856;2022-08-01T15:33:57;3.85;;;2.22;;
42000;SDS011;27689;48.390;10.856;2022-08-01T15:36:41;5.38;;;2.65;;
42000;SDS011;27689;48.390;10.856;2022-08-01T15:39:28;5.35;;;2.08;;
42000;SDS011;27689;48.390;10.856;2022-08-01T15:42:14;4.70;;;2.25;;
42000;SDS011;27689;48.390;10.856;2022-08-01T15:45:00;3.03;;;1.40;;
42000;SDS011;27689;48.390;10.856;2022-08-01T15:47:44;4.22;;;2.00;;
42000;SDS011;27689;48.390;10.856;2022-08-01T15:50:28;4.50;;;2.00;;
42000;SDS011;27689;48.390;10.856;2022-08-01T15:53:12;6.15;;;1.70;;
42000;SDS011;27689;48.390;10.856;2022-08-01T15:55:56;2.70;;;1.38;;
42000;SDS011;27689;48.390;10.856;2022-08-01T15:58:40;2.28;;;1.50;;
42000;SDS011;27689;48.390;10.856;2022-08-01T16:01:24;4.20;;;1.17;;
42000;SDS011;27689;48.390;10.856;2022-08-01T16:06:53;3.22;;;1.65;;
42000;SDS011;27689;48.390;10.856;2022-08-01T16:09:37;2.72;;;1.33;;
42000;SDS011;27689;48.390;10.856;2022-08-01T16:12:21;2.28;;;1.30;;
42000;SDS011;27689;48.390;10.856;2022-08-01T16:15:05;2.47;;;1.10;;
42000;SDS011;27689;48.390;10.856;2022-08-01T16:17:49;1.60;;;1.25;;
42000;SDS011;27689;48.390;10.856;2022-08-01T16:20:33;2.60;;;1.13;;
42000;SDS011;27689;48.390;10.856;2022-08-01T16:26:02;2.55;;;0.88;;
42000;SDS011;27689;48.390;10.856;2022-08-01T16:28:46;3.33;;;0.95;;
42000;SDS011;27689;48.390;10.856;2022-08-01T16:31:30;1.90;;;1.20;;
42000;SDS011;27689;48.390;10.856;2022-08-01T16:34:14;1.85;;;1.10;;
42000;SDS011;27689;48.390;10.856;2022-08-01T16:36:58;3.35;;;1.30;;
42000;SDS011;27689;48.390;10.856;2022-08-01T16:39:42;2.17;;;0.95;;
42000;SDS011;27689;48.390;10.856;2022-08-01T16:42:27;2.67;;;1.10;;
42000;SDS011;27689;48.390;10.856;2022-08-01T16:45:11;2.20;;;1.10;;
42000;SDS011;27689;48.390;10.856;2022-08-01T16:47:57;2.85;;;0.93;;
42000;SDS011;27689;48.390;10.856;2022-08-01T16:50:41;1.92;;;1.10;;
42000;SDS011;27689;48.390;10.856;2022-08-01T16:56:09;3.92;;;1.20;;
42000;SDS011;27689;48.390;10.856;2022-08-01T16:58:53;2.55;;;1.02;;
42000;SDS011;27689;48.390;10.856;2022-08-01T17:01:37;2.67;;;1.20;;
42000;SDS011;27689;48.390;10.856;2022-08-01T17:04:23;1.77;;;1.17;;
42000;SDS011;27689;48.390;10.856;2022-08-01T17:07:07;2.05;;;1.20;;
42000;SDS011;27689;48.390;10.856;2022-08-01T17:09:51;2.60;;;1.30;;
42000;SDS011;27689;48.390;10.856;2022-08-01T17:12:35;3.28;;;1.30;;
42000;SDS011;27689;48.390;10.856;2022-08-01T17:15:19;3.13;;;1.30;;
42000;SDS011;27689;48.390;10.856;2022-08-01T17:18:03;3.05;;;1.15;;
42000;SDS011;27689;48.390;10.856;2022-08-01T17:20:48;3.08;;;1.48;;
42000;SDS011;27689;48.390;10.856;2022-08-01T17:23:32;3.50;;;1.10;;
42000;SDS011;27689;48.390;10.856;2022-08-01T17:26:17;2.47;;;1.15;;
42000;SDS011;27689;48.390;10.856;2022-08-01T17:29:02;3.33;;;1.15;;